Logan - 24 Hour Table
Date & TimeSolar
Radiation
(W/m²)
Wind
Speed
(mph)
Wind
Direction
(degrees)
Air
Temperature
(°F)
Relative
Humidity
(%)
Precipitation
(inches)
Barometric
Pressure
(inHg)
2018/10/15 23:00 0 1.7 50 32.1 73 0.00 30.34
2018/10/15 22:00 0 2.4 4 34.2 76 0.00 30.33
2018/10/15 21:00 0 2.8 185 36.4 64 0.00 30.32
2018/10/15 20:00 0 1.8 128 40.1 57 0.00 30.32
2018/10/15 19:00 0 4.1 183 40.7 51 0.00 30.31
2018/10/15 18:00 36 2.4 262 47.1 44 0.00 30.30
2018/10/15 17:00 202 2.9 346 49.1 31 0.00 30.31
2018/10/15 16:00 362 4.1 17 48.1 31 0.00 30.31
2018/10/15 15:00 519 3.7 328 47.7 33 0.00 30.32
2018/10/15 14:00 622 3.6 311 45.7 33 0.00 30.34
2018/10/15 13:00 669 3.3 300 43.4 35 0.00 30.36
2018/10/15 12:00 655 2.4 324 41.2 35 0.00 30.38
2018/10/15 11:00 582 3.9 331 37.3 44 0.00 30.40
2018/10/15 10:00 409 2.4 313 33.5 56 0.00 30.40
2018/10/15 09:00 297 1.8 283 30.1 61 0.00 30.41
2018/10/15 08:00 112 1.7 60 25.8 61 0.00 30.41
2018/10/15 07:00 3 2.3 21 21.9 82 0.00 30.39
2018/10/15 06:00 0 1.0 17 21.1 80 0.00 30.38
2018/10/15 05:00 0 1.7 239 22.5 84 0.00 30.38
2018/10/15 04:00 0 1.7 49 23.2 83 0.00 30.37
2018/10/15 03:00 0 1.2 22 23.9 76 0.00 30.37
2018/10/15 02:00 0 1.1 343 24.3 79 0.00 30.36
2018/10/15 01:00 0 0.9 85 24.9 74 0.00 30.35
2018/10/15 00:00 0 2.3 182 27.0 76 0.00 30.34